createdAt,value
2019-05-26T00:00:27.216Z,0.00
2019-05-26T00:01:29.243Z,0.00
2019-05-26T00:02:27.187Z,0.00
2019-05-26T00:03:27.202Z,0.00
2019-05-26T00:04:27.178Z,0.00
2019-05-26T00:05:27.177Z,0.00
2019-05-26T00:06:27.176Z,0.00
2019-05-26T00:07:30.736Z,0.00
2019-05-26T00:08:27.126Z,0.00
2019-05-26T00:09:27.129Z,0.00
2019-05-26T00:10:27.104Z,0.00
2019-05-26T00:11:27.786Z,0.00
2019-05-26T00:12:27.072Z,0.00
2019-05-26T00:13:27.065Z,0.00
2019-05-26T00:14:27.047Z,0.00
2019-05-26T00:15:27.042Z,0.00
2019-05-26T00:16:27.076Z,0.00
2019-05-26T00:17:27.046Z,0.00
2019-05-26T00:18:27.028Z,0.00
2019-05-26T00:19:27.028Z,0.00
2019-05-26T00:20:27.001Z,0.00
2019-05-26T00:21:27.136Z,0.00
2019-05-26T00:22:26.982Z,0.00
2019-05-26T00:23:27.005Z,0.00
2019-05-26T00:24:26.942Z,0.00
2019-05-26T00:25:26.936Z,0.00
2019-05-26T00:26:28.740Z,0.00
2019-05-26T00:27:26.914Z,0.00
2019-05-26T00:28:26.905Z,0.00
2019-05-26T00:29:26.887Z,0.00
2019-05-26T00:30:26.877Z,0.00
2019-05-26T00:31:26.901Z,0.00
2019-05-26T00:32:26.874Z,0.00
2019-05-26T00:33:26.864Z,0.00
2019-05-26T00:34:26.851Z,0.00
2019-05-26T00:35:26.818Z,0.00
2019-05-26T00:36:26.871Z,0.00
2019-05-26T00:37:26.818Z,0.00
2019-05-26T00:38:26.776Z,0.00
2019-05-26T00:39:26.776Z,0.00
2019-05-26T00:40:26.766Z,0.00
2019-05-26T00:41:26.799Z,0.00
2019-05-26T00:42:26.731Z,0.00
2019-05-26T00:43:26.757Z,0.00
2019-05-26T00:44:26.712Z,0.00
2019-05-26T00:45:26.699Z,0.00
2019-05-26T00:46:27.253Z,0.00
2019-05-26T00:47:26.683Z,0.00
2019-05-26T00:48:26.749Z,0.00
2019-05-26T00:49:26.661Z,0.00
2019-05-26T00:50:26.671Z,0.00
2019-05-26T00:51:28.241Z,0.00
2019-05-26T00:52:26.646Z,0.00
2019-05-26T00:53:26.624Z,0.00
2019-05-26T00:54:26.667Z,0.00
2019-05-26T00:55:26.659Z,0.00
2019-05-26T00:56:26.643Z,0.00
2019-05-26T00:57:26.600Z,0.00
2019-05-26T00:58:26.564Z,0.00
2019-05-26T00:59:26.547Z,0.00
2019-05-26T01:00:26.539Z,0.00
2019-05-26T01:01:27.251Z,0.00
2019-05-26T01:02:26.534Z,0.00
2019-05-26T01:03:26.500Z,0.00
2019-05-26T01:04:26.511Z,0.00
2019-05-26T01:05:26.646Z,0.00
2019-05-26T01:06:26.522Z,0.00
2019-05-26T01:07:26.474Z,0.00
2019-05-26T01:08:26.462Z,0.00
2019-05-26T01:09:26.447Z,0.00
2019-05-26T01:10:26.439Z,0.00
2019-05-26T01:11:26.443Z,0.00
2019-05-26T01:12:26.403Z,0.00
2019-05-26T01:13:26.407Z,0.00
2019-05-26T01:14:26.397Z,0.00
2019-05-26T01:15:26.382Z,0.00
2019-05-26T01:16:26.393Z,0.00
2019-05-26T01:17:26.364Z,0.00
2019-05-26T01:18:26.330Z,0.00
2019-05-26T01:19:26.334Z,0.00
2019-05-26T01:20:26.322Z,0.00
2019-05-26T01:21:27.936Z,0.00
2019-05-26T01:22:26.287Z,0.00
2019-05-26T01:23:26.293Z,0.00
2019-05-26T01:24:26.309Z,0.00
2019-05-26T01:25:26.252Z,0.00
2019-05-26T01:26:28.233Z,0.00
2019-05-26T01:27:26.235Z,0.00
2019-05-26T01:28:26.228Z,0.00
2019-05-26T01:29:26.210Z,0.00
2019-05-26T01:30:26.196Z,0.00
2019-05-26T01:31:26.240Z,0.00
2019-05-26T01:32:26.178Z,0.00
2019-05-26T01:33:26.183Z,0.00
2019-05-26T01:34:26.160Z,0.00
2019-05-26T01:35:26.155Z,0.00
2019-05-26T01:36:26.220Z,0.00
2019-05-26T01:37:26.122Z,0.00
2019-05-26T01:38:26.105Z,0.00
2019-05-26T01:39:26.166Z,0.00
2019-05-26T01:40:26.094Z,0.00
2019-05-26T01:41:26.750Z,0.00
2019-05-26T01:42:26.075Z,0.00
2019-05-26T01:43:26.071Z,0.00
2019-05-26T01:44:26.076Z,0.00
2019-05-26T01:45:26.041Z,0.00
2019-05-26T01:46:26.063Z,0.00
2019-05-26T01:47:26.004Z,0.00
2019-05-26T01:48:26.031Z,0.00
2019-05-26T01:49:25.995Z,0.00
2019-05-26T01:50:25.973Z,0.00
2019-05-26T01:51:26.028Z,0.00
2019-05-26T01:52:25.996Z,0.00
2019-05-26T01:53:25.959Z,0.00
2019-05-26T01:54:25.998Z,0.00
2019-05-26T01:55:25.926Z,0.00
2019-05-26T01:56:25.957Z,0.00
2019-05-26T01:57:25.902Z,0.00
2019-05-26T01:58:25.911Z,0.00
2019-05-26T01:59:25.930Z,0.00
2019-05-26T02:00:25.871Z,0.00
2019-05-26T02:01:25.881Z,0.00
2019-05-26T02:02:25.837Z,0.00
2019-05-26T02:03:25.834Z,0.00
2019-05-26T02:04:25.848Z,0.00
2019-05-26T02:05:25.842Z,0.00
2019-05-26T02:06:25.830Z,0.00
2019-05-26T02:07:25.799Z,0.00
2019-05-26T02:08:38.359Z,0.00
2019-05-26T02:09:26.832Z,0.00
2019-05-26T02:10:25.758Z,0.00
2019-05-26T02:11:25.774Z,0.00
2019-05-26T02:12:25.739Z,0.00
2019-05-26T02:13:25.742Z,0.00
2019-05-26T02:14:25.722Z,0.00
2019-05-26T02:15:25.714Z,0.00
2019-05-26T02:16:25.696Z,0.00
2019-05-26T02:17:25.721Z,0.00
2019-05-26T02:18:25.655Z,0.00
2019-05-26T02:19:25.671Z,0.00
2019-05-26T02:20:25.654Z,0.00
2019-05-26T02:21:25.638Z,0.00
2019-05-26T02:22:25.687Z,0.00
2019-05-26T02:23:25.633Z,0.00
2019-05-26T02:24:25.605Z,0.00
2019-05-26T02:25:25.595Z,0.00
2019-05-26T02:26:25.571Z,0.00
2019-05-26T02:27:25.603Z,0.00
2019-05-26T02:28:25.579Z,0.00
2019-05-26T02:29:25.531Z,0.00
2019-05-26T02:30:25.558Z,0.00
2019-05-26T02:31:25.536Z,0.00
2019-05-26T02:32:25.546Z,0.00
2019-05-26T02:33:25.509Z,0.00
2019-05-26T02:34:25.510Z,0.00
2019-05-26T02:35:25.477Z,0.00
2019-05-26T02:36:25.486Z,0.00
2019-05-26T02:37:25.505Z,0.00
2019-05-26T02:38:26.498Z,0.00
2019-05-26T02:39:25.434Z,0.00
2019-05-26T02:40:25.453Z,0.00
2019-05-26T02:41:25.406Z,0.00
2019-05-26T02:42:25.458Z,4.00
2019-05-26T02:43:25.436Z,4.00
2019-05-26T02:44:25.388Z,4.00
2019-05-26T02:45:25.365Z,4.00
2019-05-26T02:46:25.345Z,0.00
2019-05-26T02:47:25.405Z,4.00
2019-05-26T02:48:25.341Z,4.00
2019-05-26T02:49:25.327Z,8.00
2019-05-26T02:50:25.330Z,8.00
2019-05-26T02:51:25.305Z,8.00
2019-05-26T02:52:25.310Z,8.00
2019-05-26T02:53:25.347Z,8.00
2019-05-26T02:54:25.265Z,12.00
2019-05-26T02:55:25.271Z,12.00
2019-05-26T02:56:25.259Z,16.00
2019-05-26T02:57:25.257Z,16.00
2019-05-26T02:58:25.221Z,16.00
2019-05-26T02:59:25.203Z,20.00
2019-05-26T03:00:25.190Z,24.00
2019-05-26T03:01:25.208Z,24.00
2019-05-26T03:02:25.231Z,28.00
2019-05-26T03:03:25.289Z,32.00
2019-05-26T03:04:25.203Z,36.00
2019-05-26T03:05:25.152Z,40.00
2019-05-26T03:06:25.144Z,48.00
2019-05-26T03:07:25.152Z,56.00
2019-05-26T03:08:25.133Z,60.00
2019-05-26T03:09:25.146Z,64.00
2019-05-26T03:10:25.080Z,76.00
2019-05-26T03:11:25.139Z,84.00
2019-05-26T03:12:25.094Z,92.00
2019-05-26T03:13:25.057Z,96.00
2019-05-26T03:14:25.099Z,108.00
2019-05-26T03:15:25.037Z,116.00
2019-05-26T03:16:25.016Z,132.00
2019-05-26T03:17:25.027Z,144.00
2019-05-26T03:18:25.001Z,152.00
2019-05-26T03:19:25.065Z,164.00
2019-05-26T03:20:25.028Z,180.00
2019-05-26T03:21:25.013Z,196.00
2019-05-26T03:22:25.122Z,212.00
2019-05-26T03:23:24.954Z,228.00
2019-05-26T03:24:24.931Z,248.00
2019-05-26T03:25:24.913Z,272.00
2019-05-26T03:26:24.916Z,296.00
2019-05-26T03:27:24.935Z,320.00
2019-05-26T03:28:24.883Z,348.00
2019-05-26T03:29:24.867Z,372.00
2019-05-26T03:30:25.893Z,404.00
2019-05-26T03:31:24.844Z,432.00
2019-05-26T03:32:24.911Z,460.00
2019-05-26T03:33:24.934Z,492.00
2019-05-26T03:34:24.846Z,524.00
2019-05-26T03:35:24.800Z,552.00
2019-05-26T03:36:24.798Z,588.00
2019-05-26T03:37:24.801Z,624.00
2019-05-26T03:38:24.766Z,664.00
2019-05-26T03:39:42.327Z,700.00
2019-05-26T03:40:25.750Z,748.00
2019-05-26T03:41:24.734Z,788.00
2019-05-26T03:42:25.874Z,828.00
2019-05-26T03:43:24.744Z,868.00
2019-05-26T03:44:24.763Z,908.00
2019-05-26T03:45:24.698Z,944.00
2019-05-26T03:46:24.705Z,984.00
2019-05-26T03:47:24.689Z,1016.00
2019-05-26T03:48:24.657Z,1056.00
2019-05-26T03:49:24.654Z,1092.00
2019-05-26T03:50:24.646Z,1140.00
2019-05-26T03:51:24.634Z,1184.00
2019-05-26T03:52:24.643Z,1244.00
2019-05-26T03:53:24.608Z,1308.00
2019-05-26T03:54:24.649Z,1384.00
2019-05-26T03:55:24.601Z,1460.00
2019-05-26T03:56:24.568Z,1540.00
2019-05-26T03:57:25.294Z,1628.00
2019-05-26T03:58:24.595Z,1724.00
2019-05-26T03:59:24.536Z,1820.00
2019-05-26T04:00:24.531Z,1932.00
2019-05-26T04:01:24.508Z,2048.00
2019-05-26T04:02:24.546Z,2160.00
2019-05-26T04:03:24.486Z,2276.00
2019-05-26T04:04:24.469Z,2396.00
2019-05-26T04:05:24.459Z,2516.00
2019-05-26T04:06:24.458Z,2608.00
2019-05-26T04:07:24.482Z,2688.00
2019-05-26T04:08:24.445Z,2752.00
2019-05-26T04:09:24.464Z,2796.00
2019-05-26T04:10:24.427Z,2832.00
2019-05-26T04:11:24.468Z,2864.00
2019-05-26T04:12:24.442Z,2888.00
2019-05-26T04:13:24.417Z,2892.00
2019-05-26T04:14:24.396Z,2896.00
2019-05-26T04:15:24.373Z,2912.00
2019-05-26T04:16:24.357Z,2944.00
2019-05-26T04:17:24.399Z,2992.00
2019-05-26T04:18:24.325Z,3052.00
2019-05-26T04:19:24.334Z,3108.00
2019-05-26T04:20:24.327Z,3172.00
2019-05-26T04:21:24.309Z,3256.00
2019-05-26T04:22:24.314Z,3360.00
2019-05-26T04:23:24.274Z,3476.00
2019-05-26T04:24:24.258Z,3612.00
2019-05-26T04:25:24.311Z,3744.00
2019-05-26T04:26:24.238Z,3880.00
2019-05-26T04:27:24.772Z,4032.00
2019-05-26T04:28:24.245Z,4216.00
2019-05-26T04:29:24.207Z,4404.00
2019-05-26T04:30:24.183Z,4588.00
2019-05-26T04:31:24.174Z,4820.00
2019-05-26T04:32:24.272Z,5080.00
2019-05-26T04:33:24.151Z,5280.00
2019-05-26T04:34:24.143Z,5528.00
2019-05-26T04:35:24.170Z,6020.00
2019-05-26T04:36:24.120Z,6144.00
2019-05-26T04:37:24.137Z,6124.00
2019-05-26T04:38:24.121Z,6108.00
2019-05-26T04:39:24.090Z,6164.00
2019-05-26T04:40:27.253Z,6256.00
2019-05-26T04:41:24.072Z,6348.00
2019-05-26T04:42:24.778Z,6444.00
2019-05-26T04:43:24.055Z,6540.00
2019-05-26T04:44:24.033Z,6624.00
2019-05-26T04:45:24.057Z,6680.00
2019-05-26T04:46:24.048Z,6728.00
2019-05-26T04:47:24.038Z,6768.00
2019-05-26T04:48:24.025Z,6808.00
2019-05-26T04:49:24.099Z,6872.00
2019-05-26T04:50:23.970Z,6964.00
2019-05-26T04:51:23.964Z,7080.00
2019-05-26T04:52:25.786Z,7204.00
2019-05-26T04:53:23.938Z,7348.00
2019-05-26T04:54:23.920Z,7488.00
2019-05-26T04:55:23.950Z,7636.00
2019-05-26T04:56:23.923Z,7792.00
2019-05-26T04:57:23.915Z,7992.00
2019-05-26T04:58:23.898Z,8540.00
2019-05-26T04:59:23.885Z,9252.00
2019-05-26T05:00:23.859Z,10576.00
2019-05-26T05:01:23.846Z,10676.00
2019-05-26T05:02:23.862Z,11200.00
2019-05-26T05:03:23.836Z,12996.00
2019-05-26T05:04:23.806Z,13128.00
2019-05-26T05:05:23.844Z,12228.00
2019-05-26T05:06:23.798Z,11280.00
2019-05-26T05:07:28.110Z,10224.00
2019-05-26T05:08:23.786Z,10896.00
2019-05-26T05:09:23.761Z,10792.00
2019-05-26T05:10:23.789Z,10260.00
2019-05-26T05:11:23.730Z,10832.00
2019-05-26T05:12:24.302Z,10912.00
2019-05-26T05:13:25.042Z,9960.00
2019-05-26T05:14:23.727Z,9464.00
2019-05-26T05:15:23.698Z,9400.00
2019-05-26T05:16:23.668Z,9324.00
2019-05-26T05:17:23.686Z,9256.00
2019-05-26T05:18:23.720Z,9220.00
2019-05-26T05:19:23.688Z,9200.00
2019-05-26T05:20:23.648Z,9172.00
2019-05-26T05:21:23.657Z,9176.00
2019-05-26T05:22:23.678Z,9316.00
2019-05-26T05:23:23.596Z,9216.00
2019-05-26T05:24:23.608Z,9240.00
2019-05-26T05:25:23.617Z,9212.00
2019-05-26T05:26:23.566Z,9224.00
2019-05-26T05:27:23.612Z,9240.00
2019-05-26T05:28:23.582Z,9256.00
2019-05-26T05:29:23.537Z,9248.00
2019-05-26T05:30:23.533Z,9292.00
2019-05-26T05:31:23.498Z,9332.00
2019-05-26T05:32:23.526Z,9404.00
2019-05-26T05:33:23.519Z,9468.00
2019-05-26T05:34:23.470Z,9548.00
2019-05-26T05:35:23.452Z,9736.00
2019-05-26T05:36:23.449Z,10088.00
2019-05-26T05:37:25.245Z,10728.00
2019-05-26T05:38:23.462Z,11152.00
2019-05-26T05:39:23.456Z,11780.00
2019-05-26T05:40:23.407Z,11192.00
2019-05-26T05:41:23.393Z,11056.00
2019-05-26T05:42:23.453Z,10664.00
2019-05-26T05:43:23.397Z,10752.00
2019-05-26T05:44:23.366Z,10600.00
2019-05-26T05:45:23.364Z,10588.00
2019-05-26T05:46:23.350Z,10744.00
2019-05-26T05:47:23.327Z,11020.00
2019-05-26T05:48:23.340Z,11312.00
2019-05-26T05:49:23.312Z,11528.00
2019-05-26T05:50:23.294Z,11724.00
2019-05-26T05:51:23.281Z,11964.00
2019-05-26T05:52:23.319Z,12224.00
2019-05-26T05:53:23.788Z,12440.00
2019-05-26T05:54:23.261Z,12624.00
2019-05-26T05:55:23.428Z,12808.00
2019-05-26T05:56:23.228Z,12968.00
2019-05-26T05:57:23.331Z,13108.00
2019-05-26T05:58:23.235Z,13224.00
2019-05-26T05:59:23.264Z,13292.00
2019-05-26T06:00:23.176Z,13408.00
2019-05-26T06:01:23.228Z,13596.00
2019-05-26T06:02:23.154Z,13692.00
2019-05-26T06:03:23.177Z,13692.00
2019-05-26T06:04:23.207Z,13948.00
2019-05-26T06:05:23.113Z,14284.00
2019-05-26T06:06:23.150Z,14448.00
2019-05-26T06:07:23.097Z,14820.00
2019-05-26T06:08:23.128Z,15464.00
2019-05-26T06:09:23.118Z,15716.00
2019-05-26T06:10:23.108Z,15856.00
2019-05-26T06:11:23.085Z,16244.00
2019-05-26T06:12:23.050Z,16896.00
2019-05-26T06:13:23.059Z,15932.00
2019-05-26T06:14:23.027Z,15800.00
2019-05-26T06:15:23.010Z,16048.00
2019-05-26T06:16:23.007Z,16180.00
2019-05-26T06:17:23.002Z,16560.00
2019-05-26T06:18:23.802Z,17312.00
2019-05-26T06:19:23.006Z,16572.00
2019-05-26T06:20:22.998Z,16544.00
2019-05-26T06:21:22.998Z,16648.00
2019-05-26T06:22:22.943Z,17632.00
2019-05-26T06:23:24.805Z,17984.00
2019-05-26T06:24:22.910Z,18912.00
2019-05-26T06:25:22.901Z,19584.00
2019-05-26T06:26:22.891Z,20096.00
2019-05-26T06:27:23.033Z,21312.00
2019-05-26T06:28:22.938Z,20544.00
2019-05-26T06:29:22.862Z,22880.00
2019-05-26T06:30:22.937Z,26432.00
2019-05-26T06:31:22.905Z,22048.00
2019-05-26T06:32:22.826Z,21856.00
2019-05-26T06:33:22.833Z,21856.00
2019-05-26T06:34:22.795Z,20896.00
2019-05-26T06:35:22.792Z,23008.00
2019-05-26T06:36:22.784Z,23392.00
2019-05-26T06:37:22.786Z,24800.00
2019-05-26T06:38:22.891Z,31424.00
2019-05-26T06:39:22.813Z,29344.00
2019-05-26T06:40:22.728Z,28416.00
2019-05-26T06:41:32.953Z,33632.00
2019-05-26T06:42:23.716Z,37408.00
2019-05-26T06:43:22.782Z,34624.00
2019-05-26T06:44:22.690Z,35584.00
2019-05-26T06:45:22.728Z,21120.00
2019-05-26T06:46:22.715Z,22560.00
2019-05-26T06:47:22.657Z,18848.00
2019-05-26T06:48:26.589Z,19808.00
2019-05-26T06:49:22.711Z,26976.00
2019-05-26T06:50:22.643Z,26112.00
2019-05-26T06:51:22.663Z,39264.00
2019-05-26T06:52:22.597Z,40448.00
2019-05-26T06:53:22.670Z,42208.00
2019-05-26T06:54:22.575Z,47008.00
2019-05-26T06:55:22.596Z,49952.00
2019-05-26T06:56:22.555Z,50560.00
2019-05-26T06:57:22.537Z,57216.00
2019-05-26T06:58:24.392Z,54624.00
2019-05-26T06:59:22.533Z,50336.00
2019-05-26T07:00:22.516Z,52480.00
2019-05-26T07:01:22.505Z,48288.00
2019-05-26T07:02:22.524Z,53504.00
2019-05-26T07:03:23.345Z,58912.00
2019-05-26T07:04:22.472Z,58656.00
2019-05-26T07:05:22.461Z,55776.00
2019-05-26T07:06:22.445Z,57920.00
2019-05-26T07:07:22.432Z,57728.00
2019-05-26T07:08:23.299Z,50336.00
2019-05-26T07:09:22.408Z,45216.00
2019-05-26T07:10:22.401Z,44192.00
2019-05-26T07:11:22.383Z,41184.00
2019-05-26T07:12:22.455Z,38784.00
2019-05-26T07:13:23.354Z,37664.00
2019-05-26T07:14:22.355Z,31840.00
2019-05-26T07:15:22.341Z,28256.00
2019-05-26T07:16:36.925Z,27104.00
2019-05-26T07:17:23.383Z,26336.00
2019-05-26T07:18:22.373Z,25120.00
2019-05-26T07:19:22.295Z,23936.00
2019-05-26T07:20:22.341Z,23200.00
2019-05-26T07:21:22.310Z,23840.00
2019-05-26T07:22:22.262Z,26208.00
2019-05-26T07:23:22.319Z,27648.00
2019-05-26T07:24:22.242Z,28480.00
2019-05-26T07:25:22.261Z,28896.00
2019-05-26T07:26:22.214Z,29472.00
2019-05-26T07:27:22.305Z,29600.00
2019-05-26T07:28:22.229Z,29088.00
2019-05-26T07:29:22.198Z,28288.00
2019-05-26T07:30:23.535Z,27136.00
2019-05-26T07:31:22.204Z,26112.00
2019-05-26T07:32:22.157Z,25376.00
2019-05-26T07:33:22.175Z,24736.00
2019-05-26T07:34:22.130Z,24608.00
2019-05-26T07:35:22.120Z,25024.00
2019-05-26T07:36:22.145Z,24896.00
2019-05-26T07:37:22.091Z,24736.00
2019-05-26T07:38:22.126Z,24512.00
2019-05-26T07:39:22.075Z,24736.00
2019-05-26T07:40:22.070Z,24992.00
2019-05-26T07:41:22.078Z,24640.00
2019-05-26T07:42:22.085Z,24064.00
2019-05-26T07:43:27.858Z,23904.00
2019-05-26T07:44:22.015Z,24000.00
2019-05-26T07:45:22.066Z,24608.00
2019-05-26T07:46:22.003Z,25024.00
2019-05-26T07:47:21.994Z,25120.00
2019-05-26T07:48:21.997Z,24736.00
2019-05-26T07:49:22.013Z,24960.00
2019-05-26T07:50:21.946Z,25024.00
2019-05-26T07:51:21.938Z,25248.00
2019-05-26T07:52:21.934Z,25408.00
2019-05-26T07:53:21.954Z,25632.00
2019-05-26T07:54:25.441Z,25312.00
2019-05-26T07:55:21.933Z,25696.00
2019-05-26T07:56:21.891Z,27168.00
2019-05-26T07:57:21.872Z,29664.00
2019-05-26T07:58:21.926Z,32768.00
2019-05-26T07:59:21.849Z,34208.00
2019-05-26T08:00:21.866Z,33952.00
2019-05-26T08:01:24.284Z,29760.00
2019-05-26T08:02:21.822Z,26144.00
2019-05-26T08:03:22.850Z,25536.00
2019-05-26T08:04:21.794Z,25632.00
2019-05-26T08:05:21.784Z,26016.00
2019-05-26T08:06:21.778Z,26592.00
2019-05-26T08:07:23.113Z,26144.00
2019-05-26T08:08:21.810Z,24832.00
2019-05-26T08:09:21.737Z,23168.00
2019-05-26T08:10:21.741Z,22144.00
2019-05-26T08:11:21.721Z,21472.00
2019-05-26T08:12:26.850Z,21024.00
2019-05-26T08:13:22.714Z,20608.00
2019-05-26T08:14:21.677Z,20320.00
2019-05-26T08:15:21.698Z,20416.00
2019-05-26T08:16:21.747Z,20800.00
2019-05-26T08:17:21.650Z,21024.00
2019-05-26T08:18:25.833Z,20928.00
2019-05-26T08:19:21.633Z,21056.00
2019-05-26T08:20:21.646Z,21120.00
2019-05-26T08:21:21.604Z,20576.00
2019-05-26T08:22:21.589Z,19552.00
2019-05-26T08:23:21.583Z,19168.00
2019-05-26T08:24:25.197Z,19232.00
2019-05-26T08:25:21.597Z,19328.00
2019-05-26T08:26:21.554Z,18496.00
2019-05-26T08:27:21.546Z,17248.00
2019-05-26T08:28:21.552Z,16004.00
2019-05-26T08:29:24.635Z,15188.00
2019-05-26T08:30:21.513Z,15180.00
2019-05-26T08:31:21.485Z,16140.00
2019-05-26T08:32:21.485Z,17824.00
2019-05-26T08:33:21.469Z,18560.00
2019-05-26T08:34:21.577Z,18272.00
2019-05-26T08:35:21.460Z,17792.00
2019-05-26T08:36:21.453Z,17536.00
2019-05-26T08:37:21.417Z,17568.00
2019-05-26T08:38:21.412Z,17248.00
2019-05-26T08:39:21.451Z,16188.00
2019-05-26T08:40:21.424Z,15520.00
2019-05-26T08:41:21.393Z,15924.00
2019-05-26T08:42:27.204Z,17568.00
2019-05-26T08:43:22.381Z,19520.00
2019-05-26T08:44:21.378Z,20768.00
2019-05-26T08:45:22.330Z,21088.00
2019-05-26T08:46:21.340Z,20864.00
2019-05-26T08:47:21.308Z,20800.00
2019-05-26T08:48:21.299Z,21632.00
2019-05-26T08:49:21.335Z,23168.00
2019-05-26T08:50:21.271Z,24896.00
2019-05-26T08:51:21.265Z,26880.00
2019-05-26T08:52:21.262Z,28960.00
2019-05-26T08:53:21.241Z,30528.00
2019-05-26T08:54:22.872Z,31264.00
2019-05-26T08:55:21.247Z,31200.00
2019-05-26T08:56:21.207Z,31840.00
2019-05-26T08:57:21.199Z,32896.00
2019-05-26T08:58:21.222Z,36704.00
2019-05-26T08:59:21.211Z,36544.00
2019-05-26T09:00:21.206Z,37440.00
2019-05-26T09:01:21.171Z,43232.00
2019-05-26T09:02:21.186Z,45632.00
2019-05-26T09:03:21.134Z,50688.00
2019-05-26T09:04:21.150Z,52544.00
2019-05-26T09:05:21.122Z,46048.00
2019-05-26T09:06:21.101Z,44000.00
2019-05-26T09:07:21.083Z,43936.00
2019-05-26T09:08:21.072Z,46816.00
2019-05-26T09:09:21.134Z,54592.00
2019-05-26T09:10:21.054Z,51680.00
2019-05-26T09:11:21.049Z,41664.00
2019-05-26T09:12:21.044Z,36448.00
2019-05-26T09:13:21.030Z,33984.00
2019-05-26T09:14:21.062Z,32928.00
2019-05-26T09:15:21.002Z,32800.00
2019-05-26T09:16:21.057Z,33472.00
2019-05-26T09:17:21.024Z,35072.00
2019-05-26T09:18:20.999Z,37024.00
2019-05-26T09:19:24.076Z,39136.00
2019-05-26T09:20:20.955Z,40800.00
2019-05-26T09:21:20.951Z,44352.00
2019-05-26T09:22:20.970Z,43232.00
2019-05-26T09:23:20.917Z,37408.00
2019-05-26T09:24:20.958Z,32928.00
2019-05-26T09:25:20.906Z,29728.00
2019-05-26T09:26:20.906Z,27744.00
2019-05-26T09:27:20.883Z,25824.00
2019-05-26T09:28:20.862Z,24608.00
2019-05-26T09:29:28.571Z,24128.00
2019-05-26T09:30:20.840Z,23680.00
2019-05-26T09:31:20.829Z,23072.00
2019-05-26T09:32:20.849Z,22688.00
2019-05-26T09:33:20.814Z,23328.00
2019-05-26T09:34:20.884Z,25088.00
2019-05-26T09:35:20.792Z,26912.00
2019-05-26T09:36:20.769Z,28896.00
2019-05-26T09:37:20.759Z,30496.00
2019-05-26T09:38:20.839Z,31328.00
2019-05-26T09:39:21.361Z,32032.00
2019-05-26T09:40:20.733Z,33440.00
2019-05-26T09:41:20.742Z,35488.00
2019-05-26T09:42:22.504Z,37696.00
2019-05-26T09:43:20.693Z,39808.00
2019-05-26T09:44:20.695Z,40736.00
2019-05-26T09:45:20.714Z,40544.00
2019-05-26T09:46:20.670Z,37952.00
2019-05-26T09:47:20.640Z,35872.00
2019-05-26T09:48:20.631Z,35168.00
2019-05-26T09:49:20.650Z,35840.00
2019-05-26T09:50:20.619Z,38560.00
2019-05-26T09:51:20.642Z,38464.00
2019-05-26T09:52:20.595Z,39680.00
2019-05-26T09:53:20.604Z,40544.00
2019-05-26T09:54:20.607Z,40960.00
2019-05-26T09:55:20.557Z,40704.00
2019-05-26T09:56:20.549Z,40672.00
2019-05-26T09:57:20.569Z,40224.00
2019-05-26T09:58:20.709Z,40032.00
2019-05-26T09:59:20.550Z,40832.00
2019-05-26T10:00:20.496Z,43680.00
2019-05-26T10:01:20.488Z,46208.00
2019-05-26T10:02:20.478Z,47520.00
2019-05-26T10:03:20.522Z,47392.00
2019-05-26T10:04:20.492Z,45632.00
2019-05-26T10:05:20.455Z,45024.00
2019-05-26T10:06:20.482Z,45600.00
2019-05-26T10:07:20.420Z,48640.00
2019-05-26T10:08:20.416Z,46752.00
2019-05-26T10:09:20.434Z,47296.00
2019-05-26T10:10:20.411Z,51968.00
2019-05-26T10:11:20.408Z,63392.00
2019-05-26T10:12:20.374Z,65664.00
2019-05-26T10:13:31.429Z,52800.00
2019-05-26T10:14:22.385Z,50368.00
2019-05-26T10:15:20.331Z,49792.00
2019-05-26T10:16:20.329Z,50880.00
2019-05-26T10:17:23.164Z,50496.00
2019-05-26T10:18:20.303Z,51040.00
2019-05-26T10:19:20.314Z,49536.00
2019-05-26T10:20:23.065Z,50912.00
2019-05-26T10:21:20.287Z,56416.00
2019-05-26T10:22:20.289Z,71200.00
2019-05-26T10:23:20.250Z,62016.00
2019-05-26T10:24:20.327Z,57888.00
2019-05-26T10:25:20.264Z,54240.00
2019-05-26T10:26:20.257Z,52864.00
2019-05-26T10:27:20.238Z,51520.00
2019-05-26T10:28:20.213Z,48224.00
2019-05-26T10:29:20.929Z,45856.00
2019-05-26T10:30:20.221Z,44224.00
2019-05-26T10:31:20.177Z,44640.00
2019-05-26T10:32:20.221Z,45984.00
2019-05-26T10:33:20.143Z,45056.00
2019-05-26T10:34:20.189Z,41152.00
2019-05-26T10:35:20.138Z,35872.00
2019-05-26T10:36:20.128Z,33216.00
2019-05-26T10:37:20.098Z,31168.00
2019-05-26T10:38:20.100Z,29632.00
2019-05-26T10:39:20.112Z,28832.00
2019-05-26T10:40:20.072Z,28256.00
2019-05-26T10:41:20.093Z,28128.00
2019-05-26T10:42:20.058Z,28640.00
2019-05-26T10:43:20.032Z,29664.00
2019-05-26T10:44:20.085Z,30784.00
2019-05-26T10:45:20.011Z,32032.00
2019-05-26T10:46:20.019Z,33120.00
2019-05-26T10:47:20.084Z,33920.00
2019-05-26T10:48:19.982Z,34336.00
2019-05-26T10:49:21.859Z,35424.00
2019-05-26T10:50:19.958Z,37664.00
2019-05-26T10:51:19.946Z,40768.00
2019-05-26T10:52:20.088Z,42880.00
2019-05-26T10:53:19.920Z,43872.00
2019-05-26T10:54:20.843Z,46592.00
2019-05-26T10:55:19.923Z,52480.00
2019-05-26T10:56:19.901Z,56384.00
2019-05-26T10:57:19.903Z,60544.00
2019-05-26T10:58:19.889Z,59776.00
2019-05-26T10:59:20.883Z,57440.00
2019-05-26T11:00:19.892Z,62400.00
2019-05-26T11:01:19.845Z,63296.00
2019-05-26T11:02:19.828Z,67744.00
2019-05-26T11:03:19.809Z,58464.00
2019-05-26T11:04:21.368Z,53728.00
2019-05-26T11:05:19.826Z,49760.00
2019-05-26T11:06:19.785Z,49376.00
2019-05-26T11:07:19.773Z,53696.00
2019-05-26T11:08:19.762Z,67808.00
2019-05-26T11:09:20.358Z,52704.00
2019-05-26T11:10:19.811Z,61440.00
2019-05-26T11:11:19.846Z,52544.00
2019-05-26T11:12:19.789Z,47680.00
2019-05-26T11:13:19.720Z,51168.00
2019-05-26T11:14:19.727Z,65600.00
2019-05-26T11:15:19.697Z,46656.00
2019-05-26T11:16:19.670Z,49824.00
2019-05-26T11:17:19.659Z,55168.00
2019-05-26T11:18:19.652Z,51936.00
2019-05-26T11:19:19.719Z,60384.00
2019-05-26T11:20:19.643Z,56864.00
2019-05-26T11:21:19.653Z,58112.00
2019-05-26T11:22:19.615Z,58048.00
2019-05-26T11:23:19.603Z,54080.00
2019-05-26T11:24:19.749Z,64032.00
2019-05-26T11:25:19.577Z,99168.00
2019-05-26T11:26:19.552Z,71712.00
2019-05-26T11:27:19.558Z,110912.00
2019-05-26T11:28:19.580Z,99904.00
2019-05-26T11:29:19.563Z,90048.00
2019-05-26T11:30:19.529Z,116544.00
2019-05-26T11:31:19.568Z,74304.00
2019-05-26T11:32:19.495Z,63552.00
2019-05-26T11:33:19.524Z,57120.00
2019-05-26T11:34:21.382Z,61312.00
2019-05-26T11:35:19.499Z,62304.00
2019-05-26T11:36:19.460Z,71392.00
2019-05-26T11:37:19.451Z,74784.00
2019-05-26T11:38:19.443Z,126336.00
2019-05-26T11:39:20.365Z,77472.00
2019-05-26T11:40:19.419Z,60800.00
2019-05-26T11:41:19.420Z,56832.00
2019-05-26T11:42:19.397Z,50112.00
2019-05-26T11:43:19.382Z,48512.00
2019-05-26T11:44:19.418Z,49248.00
2019-05-26T11:45:19.358Z,61280.00
2019-05-26T11:46:19.368Z,74208.00
2019-05-26T11:47:19.340Z,117408.00
2019-05-26T11:48:19.323Z,53728.00
2019-05-26T11:49:19.328Z,48544.00
2019-05-26T11:50:20.858Z,47840.00
2019-05-26T11:51:19.290Z,49984.00
2019-05-26T11:52:20.368Z,47104.00
2019-05-26T11:53:19.288Z,46944.00
2019-05-26T11:54:19.377Z,48864.00
2019-05-26T11:55:19.303Z,50752.00
2019-05-26T11:56:19.272Z,50080.00
2019-05-26T11:57:19.286Z,51136.00
2019-05-26T11:58:19.225Z,54528.00
2019-05-26T11:59:19.222Z,64096.00
2019-05-26T12:00:19.876Z,55712.00
2019-05-26T12:01:22.677Z,52928.00
2019-05-26T12:02:19.181Z,54464.00
2019-05-26T12:03:19.169Z,58208.00
2019-05-26T12:04:20.105Z,70592.00
2019-05-26T12:05:19.164Z,58400.00
2019-05-26T12:06:19.130Z,55584.00
2019-05-26T12:07:19.114Z,56640.00
2019-05-26T12:08:19.140Z,56768.00
2019-05-26T12:09:19.113Z,56704.00
2019-05-26T12:10:19.897Z,54240.00
2019-05-26T12:11:19.145Z,52896.00